sensor_id;sensor_type;location;lat;lon;timestamp;P1;durP1;ratioP1;P2;durP2;ratioP2
1765;SDS011;880;52.452;8.656;2022-07-23T00:01:39;5.83;;;5.43;;
1765;SDS011;880;52.452;8.656;2022-07-23T00:04:07;4.83;;;4.50;;
1765;SDS011;880;52.452;8.656;2022-07-23T00:06:34;4.60;;;4.20;;
1765;SDS011;880;52.452;8.656;2022-07-23T00:09:01;4.40;;;4.10;;
1765;SDS011;880;52.452;8.656;2022-07-23T00:11:29;4.30;;;4.00;;
1765;SDS011;880;52.452;8.656;2022-07-23T00:13:57;6.40;;;5.80;;
1765;SDS011;880;52.452;8.656;2022-07-23T00:16:24;4.30;;;4.03;;
1765;SDS011;880;52.452;8.656;2022-07-23T00:18:52;4.90;;;4.50;;
1765;SDS011;880;52.452;8.656;2022-07-23T00:21:19;4.53;;;4.23;;
1765;SDS011;880;52.452;8.656;2022-07-23T00:23:46;4.83;;;4.23;;
1765;SDS011;880;52.452;8.656;2022-07-23T00:26:13;4.57;;;4.17;;
1765;SDS011;880;52.452;8.656;2022-07-23T00:28:40;4.13;;;3.90;;
1765;SDS011;880;52.452;8.656;2022-07-23T00:31:07;4.40;;;4.00;;
1765;SDS011;880;52.452;8.656;2022-07-23T00:33:34;4.30;;;4.00;;
1765;SDS011;880;52.452;8.656;2022-07-23T00:36:01;6.10;;;5.60;;
1765;SDS011;880;52.452;8.656;2022-07-23T00:38:28;4.73;;;4.33;;
1765;SDS011;880;52.452;8.656;2022-07-23T00:40:55;5.20;;;4.70;;
1765;SDS011;880;52.452;8.656;2022-07-23T00:43:22;5.20;;;4.70;;
1765;SDS011;880;52.452;8.656;2022-07-23T00:45:50;6.77;;;4.43;;
1765;SDS011;880;52.452;8.656;2022-07-23T00:48:17;8.70;;;7.20;;
1765;SDS011;880;52.452;8.656;2022-07-23T00:50:44;5.30;;;4.90;;
1765;SDS011;880;52.452;8.656;2022-07-23T00:53:11;4.50;;;4.20;;
1765;SDS011;880;52.452;8.656;2022-07-23T00:55:39;5.47;;;4.97;;
1765;SDS011;880;52.452;8.656;2022-07-23T00:58:06;5.10;;;4.63;;
1765;SDS011;880;52.452;8.656;2022-07-23T01:00:33;5.37;;;4.97;;
1765;SDS011;880;52.452;8.656;2022-07-23T01:03:00;5.93;;;5.43;;
1765;SDS011;880;52.452;8.656;2022-07-23T01:05:27;8.00;;;7.20;;
1765;SDS011;880;52.452;8.656;2022-07-23T01:07:54;11.20;;;8.70;;
1765;SDS011;880;52.452;8.656;2022-07-23T01:10:22;6.23;;;5.77;;
1765;SDS011;880;52.452;8.656;2022-07-23T01:13:04;7.43;;;6.83;;
1765;SDS011;880;52.452;8.656;2022-07-23T01:15:36;7.80;;;7.00;;
1765;SDS011;880;52.452;8.656;2022-07-23T01:18:05;8.23;;;6.10;;
1765;SDS011;880;52.452;8.656;2022-07-23T01:20:41;5.43;;;4.93;;
1765;SDS011;880;52.452;8.656;2022-07-23T01:23:08;5.73;;;5.27;;
1765;SDS011;880;52.452;8.656;2022-07-23T01:25:47;5.33;;;4.83;;
1765;SDS011;880;52.452;8.656;2022-07-23T01:28:16;8.13;;;7.53;;
1765;SDS011;880;52.452;8.656;2022-07-23T01:30:43;7.73;;;6.63;;
1765;SDS011;880;52.452;8.656;2022-07-23T01:33:11;11.43;;;7.07;;
1765;SDS011;880;52.452;8.656;2022-07-23T01:35:38;8.57;;;7.77;;
1765;SDS011;880;52.452;8.656;2022-07-23T01:38:06;9.10;;;8.20;;
1765;SDS011;880;52.452;8.656;2022-07-23T01:40:34;9.27;;;8.30;;
1765;SDS011;880;52.452;8.656;2022-07-23T01:43:02;6.60;;;6.00;;
1765;SDS011;880;52.452;8.656;2022-07-23T01:45:32;7.80;;;5.20;;
1765;SDS011;880;52.452;8.656;2022-07-23T01:47:59;7.77;;;7.07;;
1765;SDS011;880;52.452;8.656;2022-07-23T01:50:26;8.43;;;7.10;;
1765;SDS011;880;52.452;8.656;2022-07-23T01:53:07;9.70;;;8.70;;
1765;SDS011;880;52.452;8.656;2022-07-23T01:55:36;5.27;;;4.87;;
1765;SDS011;880;52.452;8.656;2022-07-23T01:58:03;9.50;;;7.77;;
1765;SDS011;880;52.452;8.656;2022-07-23T02:00:31;8.97;;;8.27;;
1765;SDS011;880;52.452;8.656;2022-07-23T02:02:58;11.57;;;9.07;;
1765;SDS011;880;52.452;8.656;2022-07-23T02:05:26;8.90;;;8.10;;
1765;SDS011;880;52.452;8.656;2022-07-23T02:07:58;6.23;;;5.70;;
1765;SDS011;880;52.452;8.656;2022-07-23T02:10:26;6.23;;;5.73;;
1765;SDS011;880;52.452;8.656;2022-07-23T02:12:53;8.90;;;8.20;;
1765;SDS011;880;52.452;8.656;2022-07-23T02:15:20;6.30;;;5.80;;
1765;SDS011;880;52.452;8.656;2022-07-23T02:17:49;5.20;;;4.80;;
1765;SDS011;880;52.452;8.656;2022-07-23T02:20:16;6.23;;;5.57;;
1765;SDS011;880;52.452;8.656;2022-07-23T02:22:43;7.37;;;5.47;;
1765;SDS011;880;52.452;8.656;2022-07-23T02:25:10;7.00;;;6.40;;
1765;SDS011;880;52.452;8.656;2022-07-23T02:27:37;9.43;;;8.63;;
1765;SDS011;880;52.452;8.656;2022-07-23T02:30:05;6.80;;;6.30;;
1765;SDS011;880;52.452;8.656;2022-07-23T02:32:33;6.07;;;5.47;;
1765;SDS011;880;52.452;8.656;2022-07-23T02:35:01;6.00;;;5.50;;
1765;SDS011;880;52.452;8.656;2022-07-23T02:37:30;6.00;;;4.97;;
1765;SDS011;880;52.452;8.656;2022-07-23T02:39:57;6.30;;;5.03;;
1765;SDS011;880;52.452;8.656;2022-07-23T02:42:25;4.93;;;4.63;;
1765;SDS011;880;52.452;8.656;2022-07-23T02:44:52;6.50;;;6.00;;
1765;SDS011;880;52.452;8.656;2022-07-23T02:47:19;5.57;;;5.17;;
1765;SDS011;880;52.452;8.656;2022-07-23T02:49:46;6.53;;;5.97;;
1765;SDS011;880;52.452;8.656;2022-07-23T02:52:13;5.10;;;4.23;;
1765;SDS011;880;52.452;8.656;2022-07-23T02:54:41;4.63;;;4.20;;
1765;SDS011;880;52.452;8.656;2022-07-23T02:57:10;4.90;;;4.40;;
1765;SDS011;880;52.452;8.656;2022-07-23T02:59:37;5.60;;;4.73;;
1765;SDS011;880;52.452;8.656;2022-07-23T03:02:04;5.83;;;5.27;;
1765;SDS011;880;52.452;8.656;2022-07-23T03:04:31;5.63;;;5.00;;
1765;SDS011;880;52.452;8.656;2022-07-23T03:06:58;7.77;;;7.13;;
1765;SDS011;880;52.452;8.656;2022-07-23T03:09:26;6.20;;;5.80;;
1765;SDS011;880;52.452;8.656;2022-07-23T03:11:53;9.13;;;8.53;;
1765;SDS011;880;52.452;8.656;2022-07-23T03:14:20;10.90;;;9.90;;
1765;SDS011;880;52.452;8.656;2022-07-23T03:16:47;9.33;;;8.63;;
1765;SDS011;880;52.452;8.656;2022-07-23T03:19:15;10.80;;;10.00;;
1765;SDS011;880;52.452;8.656;2022-07-23T03:21:42;9.90;;;9.00;;
1765;SDS011;880;52.452;8.656;2022-07-23T03:24:11;10.47;;;9.57;;
1765;SDS011;880;52.452;8.656;2022-07-23T03:26:38;7.60;;;7.00;;
1765;SDS011;880;52.452;8.656;2022-07-23T03:29:06;6.27;;;5.80;;
1765;SDS011;880;52.452;8.656;2022-07-23T03:31:33;5.77;;;5.37;;
1765;SDS011;880;52.452;8.656;2022-07-23T03:34:00;5.90;;;5.47;;
1765;SDS011;880;52.452;8.656;2022-07-23T03:36:28;5.07;;;4.77;;
1765;SDS011;880;52.452;8.656;2022-07-23T03:38:56;8.00;;;7.20;;
1765;SDS011;880;52.452;8.656;2022-07-23T03:41:26;10.63;;;9.30;;
1765;SDS011;880;52.452;8.656;2022-07-23T03:43:53;8.90;;;7.27;;
1765;SDS011;880;52.452;8.656;2022-07-23T03:46:20;5.77;;;5.30;;
1765;SDS011;880;52.452;8.656;2022-07-23T03:48:47;6.47;;;5.03;;
1765;SDS011;880;52.452;8.656;2022-07-23T03:51:18;6.30;;;5.73;;
1765;SDS011;880;52.452;8.656;2022-07-23T03:53:45;9.03;;;6.10;;
1765;SDS011;880;52.452;8.656;2022-07-23T03:56:12;7.37;;;6.07;;
1765;SDS011;880;52.452;8.656;2022-07-23T03:58:39;5.70;;;5.30;;
1765;SDS011;880;52.452;8.656;2022-07-23T04:01:06;5.70;;;5.20;;
1765;SDS011;880;52.452;8.656;2022-07-23T04:03:33;9.23;;;8.47;;
1765;SDS011;880;52.452;8.656;2022-07-23T04:06:00;10.07;;;9.13;;
1765;SDS011;880;52.452;8.656;2022-07-23T04:08:29;8.63;;;8.03;;
1765;SDS011;880;52.452;8.656;2022-07-23T04:10:58;9.70;;;8.63;;
1765;SDS011;880;52.452;8.656;2022-07-23T04:13:25;9.70;;;8.90;;
1765;SDS011;880;52.452;8.656;2022-07-23T04:15:53;11.60;;;9.93;;
1765;SDS011;880;52.452;8.656;2022-07-23T04:18:20;10.27;;;9.37;;
1765;SDS011;880;52.452;8.656;2022-07-23T04:20:58;11.80;;;10.03;;
1765;SDS011;880;52.452;8.656;2022-07-23T04:23:26;10.30;;;9.40;;
1765;SDS011;880;52.452;8.656;2022-07-23T04:25:53;10.70;;;9.80;;
1765;SDS011;880;52.452;8.656;2022-07-23T04:28:20;10.90;;;10.00;;
1765;SDS011;880;52.452;8.656;2022-07-23T04:30:47;12.47;;;10.30;;
1765;SDS011;880;52.452;8.656;2022-07-23T04:33:15;12.87;;;11.77;;
1765;SDS011;880;52.452;8.656;2022-07-23T04:35:45;11.33;;;10.20;;
1765;SDS011;880;52.452;8.656;2022-07-23T04:38:17;12.03;;;10.93;;
1765;SDS011;880;52.452;8.656;2022-07-23T04:40:46;11.43;;;10.43;;
1765;SDS011;880;52.452;8.656;2022-07-23T04:43:13;12.10;;;11.10;;
1765;SDS011;880;52.452;8.656;2022-07-23T04:45:44;12.50;;;11.30;;
1765;SDS011;880;52.452;8.656;2022-07-23T04:48:11;11.70;;;10.67;;
1765;SDS011;880;52.452;8.656;2022-07-23T04:50:39;13.67;;;12.37;;
1765;SDS011;880;52.452;8.656;2022-07-23T04:53:13;13.13;;;11.87;;
1765;SDS011;880;52.452;8.656;2022-07-23T04:55:42;12.10;;;10.83;;
1765;SDS011;880;52.452;8.656;2022-07-23T04:58:08;13.00;;;11.33;;
1765;SDS011;880;52.452;8.656;2022-07-23T05:00:36;15.47;;;11.83;;
1765;SDS011;880;52.452;8.656;2022-07-23T05:03:03;13.93;;;12.50;;
1765;SDS011;880;52.452;8.656;2022-07-23T05:05:31;13.87;;;12.50;;
1765;SDS011;880;52.452;8.656;2022-07-23T05:08:06;13.17;;;11.77;;
1765;SDS011;880;52.452;8.656;2022-07-23T05:10:35;13.00;;;11.90;;
1765;SDS011;880;52.452;8.656;2022-07-23T05:13:02;14.70;;;12.40;;
1765;SDS011;880;52.452;8.656;2022-07-23T05:15:29;14.27;;;12.93;;
1765;SDS011;880;52.452;8.656;2022-07-23T05:17:56;14.27;;;13.07;;
1765;SDS011;880;52.452;8.656;2022-07-23T05:20:25;13.30;;;12.00;;
1765;SDS011;880;52.452;8.656;2022-07-23T05:22:52;14.00;;;12.67;;
1765;SDS011;880;52.452;8.656;2022-07-23T05:25:19;15.53;;;14.07;;
1765;SDS011;880;52.452;8.656;2022-07-23T05:27:46;14.10;;;12.90;;
1765;SDS011;880;52.452;8.656;2022-07-23T05:30:13;14.63;;;12.97;;
1765;SDS011;880;52.452;8.656;2022-07-23T05:32:42;13.73;;;12.40;;
1765;SDS011;880;52.452;8.656;2022-07-23T05:35:14;17.37;;;11.23;;
1765;SDS011;880;52.452;8.656;2022-07-23T05:37:47;13.10;;;11.80;;
1765;SDS011;880;52.452;8.656;2022-07-23T05:40:14;11.77;;;10.70;;
1765;SDS011;880;52.452;8.656;2022-07-23T05:42:42;13.13;;;11.83;;
1765;SDS011;880;52.452;8.656;2022-07-23T05:45:10;13.27;;;11.97;;
1765;SDS011;880;52.452;8.656;2022-07-23T05:47:44;12.63;;;11.43;;
1765;SDS011;880;52.452;8.656;2022-07-23T05:50:21;16.87;;;12.40;;
1765;SDS011;880;52.452;8.656;2022-07-23T05:52:53;14.13;;;11.50;;
1765;SDS011;880;52.452;8.656;2022-07-23T05:55:52;13.07;;;11.77;;
1765;SDS011;880;52.452;8.656;2022-07-23T05:58:19;13.23;;;10.47;;
1765;SDS011;880;52.452;8.656;2022-07-23T06:00:46;10.70;;;9.70;;
1765;SDS011;880;52.452;8.656;2022-07-23T06:03:13;12.10;;;10.90;;
1765;SDS011;880;52.452;8.656;2022-07-23T06:05:41;13.50;;;10.53;;
1765;SDS011;880;52.452;8.656;2022-07-23T06:08:08;13.93;;;10.90;;
1765;SDS011;880;52.452;8.656;2022-07-23T06:10:39;12.37;;;10.90;;
1765;SDS011;880;52.452;8.656;2022-07-23T06:13:07;11.33;;;10.17;;
1765;SDS011;880;52.452;8.656;2022-07-23T06:15:35;11.03;;;9.90;;
1765;SDS011;880;52.452;8.656;2022-07-23T06:18:02;9.10;;;7.30;;
1765;SDS011;880;52.452;8.656;2022-07-23T06:20:29;12.03;;;10.70;;
1765;SDS011;880;52.452;8.656;2022-07-23T06:22:57;14.23;;;10.93;;
1765;SDS011;880;52.452;8.656;2022-07-23T06:25:24;11.33;;;10.23;;
1765;SDS011;880;52.452;8.656;2022-07-23T06:27:51;16.50;;;10.47;;
1765;SDS011;880;52.452;8.656;2022-07-23T06:30:18;9.43;;;8.53;;
1765;SDS011;880;52.452;8.656;2022-07-23T06:32:46;11.37;;;9.00;;
1765;SDS011;880;52.452;8.656;2022-07-23T06:35:15;11.10;;;10.00;;
1765;SDS011;880;52.452;8.656;2022-07-23T06:37:45;8.60;;;7.37;;
1765;SDS011;880;52.452;8.656;2022-07-23T06:40:14;11.00;;;10.10;;
1765;SDS011;880;52.452;8.656;2022-07-23T06:42:41;9.90;;;9.03;;
1765;SDS011;880;52.452;8.656;2022-07-23T06:45:14;10.50;;;9.50;;
1765;SDS011;880;52.452;8.656;2022-07-23T06:47:42;11.70;;;10.07;;
1765;SDS011;880;52.452;8.656;2022-07-23T06:50:09;11.87;;;10.77;;
1765;SDS011;880;52.452;8.656;2022-07-23T06:52:36;11.27;;;10.17;;
1765;SDS011;880;52.452;8.656;2022-07-23T06:55:08;13.80;;;11.07;;
1765;SDS011;880;52.452;8.656;2022-07-23T06:57:37;12.53;;;11.43;;
1765;SDS011;880;52.452;8.656;2022-07-23T07:00:05;11.17;;;10.10;;
1765;SDS011;880;52.452;8.656;2022-07-23T07:02:33;11.33;;;9.63;;
1765;SDS011;880;52.452;8.656;2022-07-23T07:05:01;10.03;;;9.07;;
1765;SDS011;880;52.452;8.656;2022-07-23T07:07:32;10.97;;;9.80;;
1765;SDS011;880;52.452;8.656;2022-07-23T07:10:00;11.03;;;8.90;;
1765;SDS011;880;52.452;8.656;2022-07-23T07:12:29;11.80;;;9.43;;
1765;SDS011;880;52.452;8.656;2022-07-23T07:14:56;10.83;;;9.73;;
1765;SDS011;880;52.452;8.656;2022-07-23T07:17:23;7.07;;;6.50;;
1765;SDS011;880;52.452;8.656;2022-07-23T07:19:50;8.33;;;6.57;;
1765;SDS011;880;52.452;8.656;2022-07-23T07:22:17;9.90;;;8.03;;
1765;SDS011;880;52.452;8.656;2022-07-23T07:24:44;8.30;;;7.60;;
1765;SDS011;880;52.452;8.656;2022-07-23T07:27:11;4.60;;;4.17;;
1765;SDS011;880;52.452;8.656;2022-07-23T07:29:38;6.63;;;4.53;;
1765;SDS011;880;52.452;8.656;2022-07-23T07:32:06;5.33;;;4.10;;
1765;SDS011;880;52.452;8.656;2022-07-23T07:34:33;4.53;;;3.67;;
1765;SDS011;880;52.452;8.656;2022-07-23T07:37:00;5.33;;;4.77;;
1765;SDS011;880;52.452;8.656;2022-07-23T07:39:27;5.40;;;3.80;;
1765;SDS011;880;52.452;8.656;2022-07-23T07:41:54;10.97;;;3.70;;
1765;SDS011;880;52.452;8.656;2022-07-23T07:44:21;7.43;;;4.33;;
1765;SDS011;880;52.452;8.656;2022-07-23T07:46:48;5.47;;;4.53;;
1765;SDS011;880;52.452;8.656;2022-07-23T07:49:15;4.57;;;4.07;;
1765;SDS011;880;52.452;8.656;2022-07-23T07:51:47;7.40;;;4.10;;
1765;SDS011;880;52.452;8.656;2022-07-23T07:54:14;4.33;;;3.80;;
1765;SDS011;880;52.452;8.656;2022-07-23T07:56:41;7.53;;;4.77;;
1765;SDS011;880;52.452;8.656;2022-07-23T07:59:08;4.23;;;3.83;;
1765;SDS011;880;52.452;8.656;2022-07-23T08:01:37;8.50;;;3.50;;
1765;SDS011;880;52.452;8.656;2022-07-23T08:04:04;3.10;;;2.80;;
1765;SDS011;880;52.452;8.656;2022-07-23T08:06:32;4.83;;;3.90;;
1765;SDS011;880;52.452;8.656;2022-07-23T08:08:59;4.43;;;3.30;;
1765;SDS011;880;52.452;8.656;2022-07-23T08:11:26;3.37;;;3.10;;
1765;SDS011;880;52.452;8.656;2022-07-23T08:13:53;3.20;;;2.90;;
1765;SDS011;880;52.452;8.656;2022-07-23T08:16:20;3.87;;;3.07;;
1765;SDS011;880;52.452;8.656;2022-07-23T08:18:47;4.00;;;3.07;;
1765;SDS011;880;52.452;8.656;2022-07-23T08:21:14;5.73;;;3.47;;
1765;SDS011;880;52.452;8.656;2022-07-23T08:23:41;3.23;;;2.93;;
1765;SDS011;880;52.452;8.656;2022-07-23T08:26:08;4.23;;;3.30;;
1765;SDS011;880;52.452;8.656;2022-07-23T08:28:36;4.27;;;3.70;;
1765;SDS011;880;52.452;8.656;2022-07-23T08:31:03;4.13;;;2.93;;
1765;SDS011;880;52.452;8.656;2022-07-23T08:33:31;3.43;;;3.23;;
1765;SDS011;880;52.452;8.656;2022-07-23T08:36:00;3.10;;;2.83;;
1765;SDS011;880;52.452;8.656;2022-07-23T08:38:30;3.73;;;3.17;;
1765;SDS011;880;52.452;8.656;2022-07-23T08:40:57;4.10;;;3.80;;
1765;SDS011;880;52.452;8.656;2022-07-23T08:43:26;4.30;;;3.60;;
1765;SDS011;880;52.452;8.656;2022-07-23T08:45:58;4.47;;;3.73;;
1765;SDS011;880;52.452;8.656;2022-07-23T08:48:28;4.10;;;3.23;;
1765;SDS011;880;52.452;8.656;2022-07-23T08:51:01;2.60;;;2.40;;
1765;SDS011;880;52.452;8.656;2022-07-23T08:53:30;4.10;;;3.23;;
1765;SDS011;880;52.452;8.656;2022-07-23T08:56:01;3.40;;;2.93;;
1765;SDS011;880;52.452;8.656;2022-07-23T08:58:30;4.40;;;3.10;;
1765;SDS011;880;52.452;8.656;2022-07-23T09:00:57;4.90;;;2.23;;
1765;SDS011;880;52.452;8.656;2022-07-23T09:03:27;2.37;;;2.17;;
1765;SDS011;880;52.452;8.656;2022-07-23T09:05:56;6.50;;;2.30;;
1765;SDS011;880;52.452;8.656;2022-07-23T09:08:35;2.80;;;2.60;;
1765;SDS011;880;52.452;8.656;2022-07-23T09:11:11;3.03;;;2.70;;
1765;SDS011;880;52.452;8.656;2022-07-23T09:13:49;3.20;;;2.70;;
1765;SDS011;880;52.452;8.656;2022-07-23T09:16:24;3.50;;;3.00;;
1765;SDS011;880;52.452;8.656;2022-07-23T09:18:58;3.20;;;2.40;;
1765;SDS011;880;52.452;8.656;2022-07-23T09:26:35;1.70;;;1.60;;
1765;SDS011;880;52.452;8.656;2022-07-23T09:29:04;3.70;;;1.87;;
1765;SDS011;880;52.452;8.656;2022-07-23T09:34:25;2.70;;;1.87;;
1765;SDS011;880;52.452;8.656;2022-07-23T09:36:55;1.43;;;1.30;;
1765;SDS011;880;52.452;8.656;2022-07-23T09:39:28;2.97;;;1.37;;
1765;SDS011;880;52.452;8.656;2022-07-23T09:44:41;2.37;;;1.50;;
1765;SDS011;880;52.452;8.656;2022-07-23T09:47:13;1.67;;;1.57;;
1765;SDS011;880;52.452;8.656;2022-07-23T09:49:56;1.30;;;1.20;;
1765;SDS011;880;52.452;8.656;2022-07-23T09:52:40;2.20;;;1.57;;
1765;SDS011;880;52.452;8.656;2022-07-23T09:55:12;1.43;;;1.30;;
1765;SDS011;880;52.452;8.656;2022-07-23T09:57:41;1.43;;;1.33;;
1765;SDS011;880;52.452;8.656;2022-07-23T10:00:12;1.50;;;1.40;;
1765;SDS011;880;52.452;8.656;2022-07-23T10:02:39;1.73;;;1.30;;
1765;SDS011;880;52.452;8.656;2022-07-23T10:05:25;2.33;;;1.40;;
1765;SDS011;880;52.452;8.656;2022-07-23T10:08:12;1.60;;;1.50;;
1765;SDS011;880;52.452;8.656;2022-07-23T10:10:59;1.50;;;1.40;;
1765;SDS011;880;52.452;8.656;2022-07-23T10:14:02;2.00;;;1.20;;
1765;SDS011;880;52.452;8.656;2022-07-23T10:16:52;1.10;;;1.10;;
1765;SDS011;880;52.452;8.656;2022-07-23T10:19:20;2.07;;;1.30;;
1765;SDS011;880;52.452;8.656;2022-07-23T10:21:50;1.00;;;1.00;;
1765;SDS011;880;52.452;8.656;2022-07-23T10:37:45;5.10;;;2.03;;
1765;SDS011;880;52.452;8.656;2022-07-23T10:40:25;1.33;;;1.30;;
1765;SDS011;880;52.452;8.656;2022-07-23T10:42:52;3.03;;;1.20;;
1765;SDS011;880;52.452;8.656;2022-07-23T10:48:13;2.40;;;1.20;;
1765;SDS011;880;52.452;8.656;2022-07-23T10:51:05;1.37;;;1.27;;
1765;SDS011;880;52.452;8.656;2022-07-23T10:53:59;2.00;;;1.43;;
1765;SDS011;880;52.452;8.656;2022-07-23T10:59:20;3.80;;;2.10;;
1765;SDS011;880;52.452;8.656;2022-07-23T11:01:48;6.80;;;1.43;;
1765;SDS011;880;52.452;8.656;2022-07-23T11:04:18;1.50;;;1.37;;
1765;SDS011;880;52.452;8.656;2022-07-23T11:09:24;1.07;;;1.07;;
1765;SDS011;880;52.452;8.656;2022-07-23T11:15:20;1.60;;;1.27;;
1765;SDS011;880;52.452;8.656;2022-07-23T11:20:21;2.83;;;1.40;;
1765;SDS011;880;52.452;8.656;2022-07-23T11:22:50;2.27;;;0.90;;
1765;SDS011;880;52.452;8.656;2022-07-23T11:27:50;2.27;;;1.27;;
1765;SDS011;880;52.452;8.656;2022-07-23T11:32:54;1.47;;;1.13;;
1765;SDS011;880;52.452;8.656;2022-07-23T11:35:41;1.90;;;1.23;;
1765;SDS011;880;52.452;8.656;2022-07-23T11:38:19;1.37;;;1.20;;
1765;SDS011;880;52.452;8.656;2022-07-23T11:40:52;1.87;;;1.03;;
1765;SDS011;880;52.452;8.656;2022-07-23T11:43:24;3.90;;;1.10;;
1765;SDS011;880;52.452;8.656;2022-07-23T11:45:52;2.07;;;1.20;;
1765;SDS011;880;52.452;8.656;2022-07-23T11:48:25;1.30;;;1.20;;
1765;SDS011;880;52.452;8.656;2022-07-23T11:50:55;1.27;;;1.17;;
1765;SDS011;880;52.452;8.656;2022-07-23T11:53:27;1.67;;;1.27;;
1765;SDS011;880;52.452;8.656;2022-07-23T11:56:04;1.83;;;1.07;;
1765;SDS011;880;52.452;8.656;2022-07-23T11:58:37;1.10;;;1.00;;
1765;SDS011;880;52.452;8.656;2022-07-23T12:01:05;1.57;;;1.10;;
1765;SDS011;880;52.452;8.656;2022-07-23T12:03:48;1.40;;;1.30;;
1765;SDS011;880;52.452;8.656;2022-07-23T12:06:18;5.33;;;1.50;;
1765;SDS011;880;52.452;8.656;2022-07-23T12:08:45;0.90;;;0.90;;
1765;SDS011;880;52.452;8.656;2022-07-23T12:11:12;2.20;;;1.30;;
1765;SDS011;880;52.452;8.656;2022-07-23T12:13:40;1.33;;;1.23;;
1765;SDS011;880;52.452;8.656;2022-07-23T12:16:07;1.07;;;1.00;;
1765;SDS011;880;52.452;8.656;2022-07-23T12:18:35;2.07;;;1.87;;
1765;SDS011;880;52.452;8.656;2022-07-23T12:21:03;1.50;;;1.40;;
1765;SDS011;880;52.452;8.656;2022-07-23T12:23:33;1.57;;;0.90;;
1765;SDS011;880;52.452;8.656;2022-07-23T12:26:01;1.27;;;1.17;;
1765;SDS011;880;52.452;8.656;2022-07-23T12:28:30;1.40;;;1.30;;
1765;SDS011;880;52.452;8.656;2022-07-23T12:30:59;1.10;;;1.10;;
1765;SDS011;880;52.452;8.656;2022-07-23T12:33:30;2.47;;;1.20;;
1765;SDS011;880;52.452;8.656;2022-07-23T12:36:01;0.90;;;0.90;;
1765;SDS011;880;52.452;8.656;2022-07-23T12:38:41;2.03;;;1.30;;
1765;SDS011;880;52.452;8.656;2022-07-23T12:41:14;0.90;;;0.90;;
1765;SDS011;880;52.452;8.656;2022-07-23T12:43:42;1.47;;;1.10;;
1765;SDS011;880;52.452;8.656;2022-07-23T12:46:14;1.73;;;1.63;;
1765;SDS011;880;52.452;8.656;2022-07-23T12:51:20;1.90;;;1.60;;
1765;SDS011;880;52.452;8.656;2022-07-23T12:53:53;1.67;;;1.10;;
1765;SDS011;880;52.452;8.656;2022-07-23T12:56:33;1.57;;;1.00;;
1765;SDS011;880;52.452;8.656;2022-07-23T13:01:31;1.23;;;1.13;;
1765;SDS011;880;52.452;8.656;2022-07-23T13:04:20;1.40;;;1.30;;
1765;SDS011;880;52.452;8.656;2022-07-23T13:09:31;2.73;;;1.20;;
1765;SDS011;880;52.452;8.656;2022-07-23T13:12:20;1.60;;;1.10;;
1765;SDS011;880;52.452;8.656;2022-07-23T13:14:47;1.40;;;1.30;;
1765;SDS011;880;52.452;8.656;2022-07-23T13:17:14;1.53;;;1.10;;
1765;SDS011;880;52.452;8.656;2022-07-23T13:19:40;0.90;;;0.90;;
1765;SDS011;880;52.452;8.656;2022-07-23T13:22:09;2.00;;;1.20;;
1765;SDS011;880;52.452;8.656;2022-07-23T13:24:36;2.77;;;1.20;;
1765;SDS011;880;52.452;8.656;2022-07-23T13:27:05;3.07;;;0.97;;
1765;SDS011;880;52.452;8.656;2022-07-23T13:29:36;1.77;;;1.30;;
1765;SDS011;880;52.452;8.656;2022-07-23T13:32:03;2.10;;;1.37;;
1765;SDS011;880;52.452;8.656;2022-07-23T13:34:38;2.40;;;1.30;;
1765;SDS011;880;52.452;8.656;2022-07-23T13:37:07;2.97;;;1.40;;
1765;SDS011;880;52.452;8.656;2022-07-23T13:39:34;1.83;;;1.00;;
1765;SDS011;880;52.452;8.656;2022-07-23T13:42:04;1.67;;;1.23;;
1765;SDS011;880;52.452;8.656;2022-07-23T13:44:52;1.53;;;1.13;;
1765;SDS011;880;52.452;8.656;2022-07-23T13:47:18;1.23;;;1.13;;
1765;SDS011;880;52.452;8.656;2022-07-23T13:49:45;1.30;;;1.20;;
1765;SDS011;880;52.452;8.656;2022-07-23T13:52:14;1.30;;;1.20;;
1765;SDS011;880;52.452;8.656;2022-07-23T13:54:42;1.10;;;1.10;;
1765;SDS011;880;52.452;8.656;2022-07-23T13:57:09;1.17;;;1.07;;
1765;SDS011;880;52.452;8.656;2022-07-23T13:59:37;1.47;;;1.30;;
1765;SDS011;880;52.452;8.656;2022-07-23T14:02:04;1.10;;;1.00;;
1765;SDS011;880;52.452;8.656;2022-07-23T14:04:46;1.43;;;1.00;;
1765;SDS011;880;52.452;8.656;2022-07-23T14:07:14;1.23;;;1.00;;
1765;SDS011;880;52.452;8.656;2022-07-23T14:09:42;1.37;;;0.90;;
1765;SDS011;880;52.452;8.656;2022-07-23T14:12:10;1.80;;;1.40;;
1765;SDS011;880;52.452;8.656;2022-07-23T14:14:37;0.97;;;0.97;;
1765;SDS011;880;52.452;8.656;2022-07-23T14:17:04;0.93;;;0.90;;
1765;SDS011;880;52.452;8.656;2022-07-23T14:19:32;1.23;;;0.90;;
1765;SDS011;880;52.452;8.656;2022-07-23T14:22:00;1.10;;;1.00;;
1765;SDS011;880;52.452;8.656;2022-07-23T14:24:27;1.40;;;1.30;;
1765;SDS011;880;52.452;8.656;2022-07-23T14:27:02;1.97;;;1.40;;
1765;SDS011;880;52.452;8.656;2022-07-23T14:29:31;1.03;;;0.90;;
1765;SDS011;880;52.452;8.656;2022-07-23T14:32:00;1.37;;;1.03;;
1765;SDS011;880;52.452;8.656;2022-07-23T14:34:28;0.90;;;0.80;;
1765;SDS011;880;52.452;8.656;2022-07-23T14:36:56;1.00;;;1.00;;
1765;SDS011;880;52.452;8.656;2022-07-23T14:39:23;1.43;;;0.93;;
1765;SDS011;880;52.452;8.656;2022-07-23T14:41:51;1.50;;;1.17;;
1765;SDS011;880;52.452;8.656;2022-07-23T14:44:18;1.00;;;0.90;;
1765;SDS011;880;52.452;8.656;2022-07-23T14:46:45;1.47;;;1.23;;
1765;SDS011;880;52.452;8.656;2022-07-23T14:49:13;4.80;;;1.20;;
1765;SDS011;880;52.452;8.656;2022-07-23T14:51:40;1.00;;;1.00;;
1765;SDS011;880;52.452;8.656;2022-07-23T14:54:08;3.07;;;1.10;;
1765;SDS011;880;52.452;8.656;2022-07-23T14:56:35;1.27;;;1.07;;
1765;SDS011;880;52.452;8.656;2022-07-23T14:59:03;1.33;;;1.23;;
1765;SDS011;880;52.452;8.656;2022-07-23T15:01:31;2.37;;;1.00;;
1765;SDS011;880;52.452;8.656;2022-07-23T15:04:00;1.27;;;1.00;;
1765;SDS011;880;52.452;8.656;2022-07-23T15:06:47;3.53;;;0.97;;
1765;SDS011;880;52.452;8.656;2022-07-23T15:09:14;1.13;;;1.03;;
1765;SDS011;880;52.452;8.656;2022-07-23T15:11:42;1.60;;;1.10;;
1765;SDS011;880;52.452;8.656;2022-07-23T15:14:09;2.13;;;1.70;;
1765;SDS011;880;52.452;8.656;2022-07-23T15:16:43;1.90;;;1.10;;
1765;SDS011;880;52.452;8.656;2022-07-23T15:19:10;1.00;;;0.90;;
1765;SDS011;880;52.452;8.656;2022-07-23T15:21:38;2.53;;;2.00;;
1765;SDS011;880;52.452;8.656;2022-07-23T15:24:05;1.03;;;1.03;;
1765;SDS011;880;52.452;8.656;2022-07-23T15:26:32;1.27;;;1.17;;
1765;SDS011;880;52.452;8.656;2022-07-23T15:29:01;1.43;;;1.33;;
1765;SDS011;880;52.452;8.656;2022-07-23T15:31:29;1.13;;;1.00;;
1765;SDS011;880;52.452;8.656;2022-07-23T15:33:56;1.07;;;0.97;;
1765;SDS011;880;52.452;8.656;2022-07-23T15:36:23;1.43;;;1.10;;
1765;SDS011;880;52.452;8.656;2022-07-23T15:38:51;0.90;;;0.90;;
1765;SDS011;880;52.452;8.656;2022-07-23T15:41:18;1.37;;;1.27;;
1765;SDS011;880;52.452;8.656;2022-07-23T15:43:45;0.93;;;0.93;;
1765;SDS011;880;52.452;8.656;2022-07-23T15:46:12;1.93;;;1.30;;
1765;SDS011;880;52.452;8.656;2022-07-23T15:48:45;1.40;;;1.30;;
1765;SDS011;880;52.452;8.656;2022-07-23T15:51:13;1.50;;;1.10;;
1765;SDS011;880;52.452;8.656;2022-07-23T15:53:43;1.10;;;1.10;;
1765;SDS011;880;52.452;8.656;2022-07-23T15:56:10;1.30;;;1.20;;
1765;SDS011;880;52.452;8.656;2022-07-23T15:58:42;1.60;;;1.43;;
1765;SDS011;880;52.452;8.656;2022-07-23T16:01:10;5.40;;;1.43;;
1765;SDS011;880;52.452;8.656;2022-07-23T16:03:39;1.07;;;1.07;;
1765;SDS011;880;52.452;8.656;2022-07-23T16:06:06;1.00;;;1.00;;
1765;SDS011;880;52.452;8.656;2022-07-23T16:08:43;1.30;;;0.97;;
1765;SDS011;880;52.452;8.656;2022-07-23T16:11:11;1.30;;;0.93;;
1765;SDS011;880;52.452;8.656;2022-07-23T16:13:39;8.50;;;1.57;;
1765;SDS011;880;52.452;8.656;2022-07-23T16:16:07;1.30;;;1.20;;
1765;SDS011;880;52.452;8.656;2022-07-23T16:18:35;1.70;;;1.33;;
1765;SDS011;880;52.452;8.656;2022-07-23T16:21:03;1.60;;;1.17;;
1765;SDS011;880;52.452;8.656;2022-07-23T16:23:37;2.20;;;1.63;;
1765;SDS011;880;52.452;8.656;2022-07-23T16:26:04;3.17;;;1.70;;
1765;SDS011;880;52.452;8.656;2022-07-23T16:28:31;1.40;;;1.30;;
1765;SDS011;880;52.452;8.656;2022-07-23T16:30:58;1.83;;;1.30;;